sensor_id;sensor_type;location;lat;lon;timestamp;P1;durP1;ratioP1;P2;durP2;ratioP2
46675;SDS011;32412;51.478;5.694;2022-12-07T00:02:17;36.55;;;18.88;;
46675;SDS011;32412;51.478;5.694;2022-12-07T00:04:42;35.35;;;18.10;;
46675;SDS011;32412;51.478;5.694;2022-12-07T00:07:08;33.63;;;17.65;;
46675;SDS011;32412;51.478;5.694;2022-12-07T00:09:34;35.72;;;18.90;;
46675;SDS011;32412;51.478;5.694;2022-12-07T00:11:59;36.15;;;19.02;;
46675;SDS011;32412;51.478;5.694;2022-12-07T00:14:25;33.13;;;18.25;;
46675;SDS011;32412;51.478;5.694;2022-12-07T00:16:51;35.85;;;19.00;;
46675;SDS011;32412;51.478;5.694;2022-12-07T00:19:17;36.95;;;18.15;;
46675;SDS011;32412;51.478;5.694;2022-12-07T00:21:43;35.30;;;18.65;;
46675;SDS011;32412;51.478;5.694;2022-12-07T00:24:09;32.70;;;18.30;;
46675;SDS011;32412;51.478;5.694;2022-12-07T00:26:36;36.47;;;18.33;;
46675;SDS011;32412;51.478;5.694;2022-12-07T00:29:07;38.92;;;19.33;;
46675;SDS011;32412;51.478;5.694;2022-12-07T00:31:45;38.67;;;18.90;;
46675;SDS011;32412;51.478;5.694;2022-12-07T00:34:15;37.58;;;18.55;;
46675;SDS011;32412;51.478;5.694;2022-12-07T00:36:42;37.30;;;18.52;;
46675;SDS011;32412;51.478;5.694;2022-12-07T00:39:08;36.40;;;18.83;;
46675;SDS011;32412;51.478;5.694;2022-12-07T00:41:34;39.50;;;19.60;;
46675;SDS011;32412;51.478;5.694;2022-12-07T00:43:59;38.42;;;19.38;;
46675;SDS011;32412;51.478;5.694;2022-12-07T00:46:25;40.58;;;18.40;;
46675;SDS011;32412;51.478;5.694;2022-12-07T00:48:52;41.42;;;19.17;;
46675;SDS011;32412;51.478;5.694;2022-12-07T00:51:19;35.90;;;18.45;;
46675;SDS011;32412;51.478;5.694;2022-12-07T00:53:46;39.83;;;19.75;;
46675;SDS011;32412;51.478;5.694;2022-12-07T00:56:13;37.83;;;18.23;;
46675;SDS011;32412;51.478;5.694;2022-12-07T00:58:41;39.22;;;18.85;;
46675;SDS011;32412;51.478;5.694;2022-12-07T01:01:07;32.75;;;18.27;;
46675;SDS011;32412;51.478;5.694;2022-12-07T01:03:34;36.08;;;18.73;;
46675;SDS011;32412;51.478;5.694;2022-12-07T01:06:01;32.45;;;17.15;;
46675;SDS011;32412;51.478;5.694;2022-12-07T01:08:27;38.25;;;19.55;;
46675;SDS011;32412;51.478;5.694;2022-12-07T01:11:00;40.97;;;19.95;;
46675;SDS011;32412;51.478;5.694;2022-12-07T01:13:31;37.25;;;19.38;;
46675;SDS011;32412;51.478;5.694;2022-12-07T01:15:59;39.38;;;20.65;;
46675;SDS011;32412;51.478;5.694;2022-12-07T01:18:27;40.63;;;20.58;;
46675;SDS011;32412;51.478;5.694;2022-12-07T01:20:57;46.38;;;20.73;;
46675;SDS011;32412;51.478;5.694;2022-12-07T01:23:24;41.17;;;19.90;;
46675;SDS011;32412;51.478;5.694;2022-12-07T01:25:54;43.05;;;21.48;;
46675;SDS011;32412;51.478;5.694;2022-12-07T01:28:20;43.90;;;20.15;;
46675;SDS011;32412;51.478;5.694;2022-12-07T01:30:54;45.17;;;20.58;;
46675;SDS011;32412;51.478;5.694;2022-12-07T01:33:23;45.15;;;20.85;;
46675;SDS011;32412;51.478;5.694;2022-12-07T01:35:51;41.40;;;20.40;;
46675;SDS011;32412;51.478;5.694;2022-12-07T01:38:16;40.17;;;19.98;;
46675;SDS011;32412;51.478;5.694;2022-12-07T01:40:42;40.03;;;18.98;;
46675;SDS011;32412;51.478;5.694;2022-12-07T01:43:17;41.40;;;19.17;;
46675;SDS011;32412;51.478;5.694;2022-12-07T01:45:44;39.53;;;18.92;;
46675;SDS011;32412;51.478;5.694;2022-12-07T01:48:10;40.28;;;17.60;;
46675;SDS011;32412;51.478;5.694;2022-12-07T01:50:38;34.05;;;17.88;;
46675;SDS011;32412;51.478;5.694;2022-12-07T01:53:06;35.85;;;17.80;;
46675;SDS011;32412;51.478;5.694;2022-12-07T01:55:37;28.90;;;16.63;;
46675;SDS011;32412;51.478;5.694;2022-12-07T01:58:07;28.30;;;15.73;;
46675;SDS011;32412;51.478;5.694;2022-12-07T02:00:34;31.48;;;15.65;;
46675;SDS011;32412;51.478;5.694;2022-12-07T02:03:03;33.25;;;17.00;;
46675;SDS011;32412;51.478;5.694;2022-12-07T02:05:33;32.55;;;14.63;;
46675;SDS011;32412;51.478;5.694;2022-12-07T02:08:00;30.63;;;14.63;;
46675;SDS011;32412;51.478;5.694;2022-12-07T02:10:29;29.55;;;15.40;;
46675;SDS011;32412;51.478;5.694;2022-12-07T02:13:03;29.00;;;14.55;;
46675;SDS011;32412;51.478;5.694;2022-12-07T02:21:53;36.50;;;15.63;;
46675;SDS011;32412;51.478;5.694;2022-12-07T02:40:40;24.80;;;14.15;;
46675;SDS011;32412;51.478;5.694;2022-12-07T02:43:09;28.27;;;14.75;;
46675;SDS011;32412;51.478;5.694;2022-12-07T02:45:49;27.83;;;14.38;;
46675;SDS011;32412;51.478;5.694;2022-12-07T02:48:18;27.73;;;14.57;;
46675;SDS011;32412;51.478;5.694;2022-12-07T02:50:49;27.35;;;14.43;;
46675;SDS011;32412;51.478;5.694;2022-12-07T03:07:21;31.40;;;15.25;;
46675;SDS011;32412;51.478;5.694;2022-12-07T03:12:29;35.95;;;15.80;;
46675;SDS011;32412;51.478;5.694;2022-12-07T03:15:18;30.50;;;15.18;;
46675;SDS011;32412;51.478;5.694;2022-12-07T03:17:51;33.63;;;15.77;;
46675;SDS011;32412;51.478;5.694;2022-12-07T03:20:20;30.05;;;15.40;;
46675;SDS011;32412;51.478;5.694;2022-12-07T03:22:47;32.72;;;16.15;;
46675;SDS011;32412;51.478;5.694;2022-12-07T03:25:14;28.90;;;16.00;;
46675;SDS011;32412;51.478;5.694;2022-12-07T03:30:22;28.77;;;16.30;;
46675;SDS011;32412;51.478;5.694;2022-12-07T03:33:14;37.78;;;17.55;;
46675;SDS011;32412;51.478;5.694;2022-12-07T03:35:51;35.63;;;17.08;;
46675;SDS011;32412;51.478;5.694;2022-12-07T03:38:45;35.42;;;16.83;;
46675;SDS011;32412;51.478;5.694;2022-12-07T03:41:16;31.85;;;16.52;;
46675;SDS011;32412;51.478;5.694;2022-12-07T03:43:47;31.40;;;16.10;;
46675;SDS011;32412;51.478;5.694;2022-12-07T03:49:27;36.75;;;17.05;;
46675;SDS011;32412;51.478;5.694;2022-12-07T03:54:58;29.33;;;15.77;;
46675;SDS011;32412;51.478;5.694;2022-12-07T03:57:35;28.77;;;15.15;;
46675;SDS011;32412;51.478;5.694;2022-12-07T04:00:03;28.50;;;14.75;;
46675;SDS011;32412;51.478;5.694;2022-12-07T04:02:31;27.77;;;14.90;;
46675;SDS011;32412;51.478;5.694;2022-12-07T04:04:58;27.90;;;14.82;;
46675;SDS011;32412;51.478;5.694;2022-12-07T04:07:24;26.90;;;14.27;;
46675;SDS011;32412;51.478;5.694;2022-12-07T04:09:50;27.77;;;14.60;;
46675;SDS011;32412;51.478;5.694;2022-12-07T04:12:16;31.88;;;14.20;;
46675;SDS011;32412;51.478;5.694;2022-12-07T04:14:41;26.63;;;13.55;;
46675;SDS011;32412;51.478;5.694;2022-12-07T04:17:08;27.92;;;14.25;;
46675;SDS011;32412;51.478;5.694;2022-12-07T04:19:34;28.48;;;13.07;;
46675;SDS011;32412;51.478;5.694;2022-12-07T04:22:00;26.67;;;14.05;;
46675;SDS011;32412;51.478;5.694;2022-12-07T04:24:27;25.70;;;13.18;;
46675;SDS011;32412;51.478;5.694;2022-12-07T04:26:54;27.48;;;13.10;;
46675;SDS011;32412;51.478;5.694;2022-12-07T04:29:20;25.77;;;13.10;;
46675;SDS011;32412;51.478;5.694;2022-12-07T04:31:47;17.13;;;11.38;;
46675;SDS011;32412;51.478;5.694;2022-12-07T04:34:14;23.02;;;11.65;;
46675;SDS011;32412;51.478;5.694;2022-12-07T04:36:40;21.55;;;11.48;;
46675;SDS011;32412;51.478;5.694;2022-12-07T04:39:07;23.25;;;10.88;;
46675;SDS011;32412;51.478;5.694;2022-12-07T04:41:33;19.25;;;10.60;;
46675;SDS011;32412;51.478;5.694;2022-12-07T04:44:00;17.73;;;10.73;;
46675;SDS011;32412;51.478;5.694;2022-12-07T04:46:29;21.25;;;10.73;;
46675;SDS011;32412;51.478;5.694;2022-12-07T04:48:56;21.27;;;10.68;;
46675;SDS011;32412;51.478;5.694;2022-12-07T04:51:23;20.52;;;10.10;;
46675;SDS011;32412;51.478;5.694;2022-12-07T04:53:51;16.55;;;9.95;;
46675;SDS011;32412;51.478;5.694;2022-12-07T04:56:17;19.13;;;9.38;;
46675;SDS011;32412;51.478;5.694;2022-12-07T04:58:43;16.48;;;8.93;;
46675;SDS011;32412;51.478;5.694;2022-12-07T05:01:10;17.67;;;9.40;;
46675;SDS011;32412;51.478;5.694;2022-12-07T05:03:36;19.52;;;9.75;;
46675;SDS011;32412;51.478;5.694;2022-12-07T05:06:03;18.15;;;9.63;;
46675;SDS011;32412;51.478;5.694;2022-12-07T05:08:29;18.98;;;10.10;;
46675;SDS011;32412;51.478;5.694;2022-12-07T05:10:56;18.40;;;9.75;;
46675;SDS011;32412;51.478;5.694;2022-12-07T05:13:22;22.65;;;11.00;;
46675;SDS011;32412;51.478;5.694;2022-12-07T05:15:48;18.35;;;10.68;;
46675;SDS011;32412;51.478;5.694;2022-12-07T05:18:14;23.05;;;10.73;;
46675;SDS011;32412;51.478;5.694;2022-12-07T05:20:40;24.42;;;10.32;;
46675;SDS011;32412;51.478;5.694;2022-12-07T05:23:07;19.15;;;9.88;;
46675;SDS011;32412;51.478;5.694;2022-12-07T05:25:33;21.48;;;10.35;;
46675;SDS011;32412;51.478;5.694;2022-12-07T05:27:58;21.20;;;10.65;;
46675;SDS011;32412;51.478;5.694;2022-12-07T05:30:25;18.40;;;9.75;;
46675;SDS011;32412;51.478;5.694;2022-12-07T05:32:51;22.40;;;10.38;;
46675;SDS011;32412;51.478;5.694;2022-12-07T05:35:17;21.73;;;9.35;;
46675;SDS011;32412;51.478;5.694;2022-12-07T05:37:43;17.08;;;8.75;;
46675;SDS011;32412;51.478;5.694;2022-12-07T05:40:09;17.02;;;9.57;;
46675;SDS011;32412;51.478;5.694;2022-12-07T05:42:36;18.67;;;9.57;;
46675;SDS011;32412;51.478;5.694;2022-12-07T05:45:02;22.77;;;10.45;;
46675;SDS011;32412;51.478;5.694;2022-12-07T05:47:28;25.70;;;11.30;;
46675;SDS011;32412;51.478;5.694;2022-12-07T05:49:54;26.50;;;10.13;;
46675;SDS011;32412;51.478;5.694;2022-12-07T05:52:20;19.60;;;11.00;;
46675;SDS011;32412;51.478;5.694;2022-12-07T05:54:46;25.10;;;11.65;;
46675;SDS011;32412;51.478;5.694;2022-12-07T05:57:11;20.45;;;10.52;;
46675;SDS011;32412;51.478;5.694;2022-12-07T05:59:40;23.70;;;12.35;;
46675;SDS011;32412;51.478;5.694;2022-12-07T06:02:10;29.17;;;12.90;;
46675;SDS011;32412;51.478;5.694;2022-12-07T06:04:38;25.63;;;11.95;;
46675;SDS011;32412;51.478;5.694;2022-12-07T06:07:06;28.25;;;12.77;;
46675;SDS011;32412;51.478;5.694;2022-12-07T06:09:33;32.17;;;12.88;;
46675;SDS011;32412;51.478;5.694;2022-12-07T06:11:59;25.98;;;13.07;;
46675;SDS011;32412;51.478;5.694;2022-12-07T06:14:43;30.63;;;13.77;;
46675;SDS011;32412;51.478;5.694;2022-12-07T06:17:09;26.80;;;12.68;;
46675;SDS011;32412;51.478;5.694;2022-12-07T06:19:37;28.50;;;13.57;;
46675;SDS011;32412;51.478;5.694;2022-12-07T06:22:02;24.50;;;13.10;;
46675;SDS011;32412;51.478;5.694;2022-12-07T06:24:29;28.58;;;13.68;;
46675;SDS011;32412;51.478;5.694;2022-12-07T06:26:58;28.73;;;13.48;;
46675;SDS011;32412;51.478;5.694;2022-12-07T06:29:24;27.50;;;13.60;;
46675;SDS011;32412;51.478;5.694;2022-12-07T06:31:50;28.30;;;13.48;;
46675;SDS011;32412;51.478;5.694;2022-12-07T06:34:17;28.65;;;12.38;;
46675;SDS011;32412;51.478;5.694;2022-12-07T06:36:44;32.45;;;13.43;;
46675;SDS011;32412;51.478;5.694;2022-12-07T06:39:16;26.30;;;13.55;;
46675;SDS011;32412;51.478;5.694;2022-12-07T06:41:44;26.88;;;13.52;;
46675;SDS011;32412;51.478;5.694;2022-12-07T06:44:10;31.42;;;13.43;;
46675;SDS011;32412;51.478;5.694;2022-12-07T06:46:36;27.63;;;13.98;;
46675;SDS011;32412;51.478;5.694;2022-12-07T06:49:02;33.45;;;13.70;;
46675;SDS011;32412;51.478;5.694;2022-12-07T06:51:29;38.45;;;14.20;;
46675;SDS011;32412;51.478;5.694;2022-12-07T06:53:55;35.13;;;13.38;;
46675;SDS011;32412;51.478;5.694;2022-12-07T06:56:20;29.98;;;14.07;;
46675;SDS011;32412;51.478;5.694;2022-12-07T06:58:47;29.60;;;14.57;;
46675;SDS011;32412;51.478;5.694;2022-12-07T07:01:14;32.88;;;14.35;;
46675;SDS011;32412;51.478;5.694;2022-12-07T07:03:41;27.42;;;13.95;;
46675;SDS011;32412;51.478;5.694;2022-12-07T07:06:07;40.47;;;14.82;;
46675;SDS011;32412;51.478;5.694;2022-12-07T07:08:34;28.42;;;13.32;;
46675;SDS011;32412;51.478;5.694;2022-12-07T07:11:02;38.88;;;13.18;;
46675;SDS011;32412;51.478;5.694;2022-12-07T07:13:29;28.27;;;12.85;;
46675;SDS011;32412;51.478;5.694;2022-12-07T07:15:54;26.42;;;13.35;;
46675;SDS011;32412;51.478;5.694;2022-12-07T07:18:20;27.30;;;13.00;;
46675;SDS011;32412;51.478;5.694;2022-12-07T07:20:46;25.20;;;12.65;;
46675;SDS011;32412;51.478;5.694;2022-12-07T07:23:12;33.28;;;12.20;;
46675;SDS011;32412;51.478;5.694;2022-12-07T07:25:38;40.40;;;17.00;;
46675;SDS011;32412;51.478;5.694;2022-12-07T07:28:03;52.90;;;21.55;;
46675;SDS011;32412;51.478;5.694;2022-12-07T07:30:29;71.15;;;29.15;;
46675;SDS011;32412;51.478;5.694;2022-12-07T07:32:56;68.78;;;33.50;;
46675;SDS011;32412;51.478;5.694;2022-12-07T07:35:23;44.95;;;19.85;;
46675;SDS011;32412;51.478;5.694;2022-12-07T07:37:50;30.17;;;13.57;;
46675;SDS011;32412;51.478;5.694;2022-12-07T07:40:16;27.20;;;12.20;;
46675;SDS011;32412;51.478;5.694;2022-12-07T07:42:41;31.90;;;13.35;;
46675;SDS011;32412;51.478;5.694;2022-12-07T07:45:07;32.35;;;11.40;;
46675;SDS011;32412;51.478;5.694;2022-12-07T07:47:33;26.95;;;11.32;;
46675;SDS011;32412;51.478;5.694;2022-12-07T07:49:59;28.15;;;11.90;;
46675;SDS011;32412;51.478;5.694;2022-12-07T07:52:24;23.15;;;11.23;;
46675;SDS011;32412;51.478;5.694;2022-12-07T07:54:50;21.77;;;11.15;;
46675;SDS011;32412;51.478;5.694;2022-12-07T07:57:16;21.98;;;11.48;;
46675;SDS011;32412;51.478;5.694;2022-12-07T07:59:42;24.73;;;12.43;;
46675;SDS011;32412;51.478;5.694;2022-12-07T08:02:11;23.05;;;11.80;;
46675;SDS011;32412;51.478;5.694;2022-12-07T08:04:39;23.35;;;12.93;;
46675;SDS011;32412;51.478;5.694;2022-12-07T08:07:05;25.83;;;11.77;;
46675;SDS011;32412;51.478;5.694;2022-12-07T08:09:31;17.88;;;11.23;;
46675;SDS011;32412;51.478;5.694;2022-12-07T08:11:57;22.48;;;10.77;;
46675;SDS011;32412;51.478;5.694;2022-12-07T08:14:23;25.52;;;11.35;;
46675;SDS011;32412;51.478;5.694;2022-12-07T08:16:49;22.35;;;10.98;;
46675;SDS011;32412;51.478;5.694;2022-12-07T08:19:15;23.23;;;10.45;;
46675;SDS011;32412;51.478;5.694;2022-12-07T08:21:41;21.58;;;10.80;;
46675;SDS011;32412;51.478;5.694;2022-12-07T08:24:06;20.63;;;10.50;;
46675;SDS011;32412;51.478;5.694;2022-12-07T08:26:32;27.38;;;11.15;;
46675;SDS011;32412;51.478;5.694;2022-12-07T08:28:59;20.27;;;9.70;;
46675;SDS011;32412;51.478;5.694;2022-12-07T08:31:24;21.55;;;11.02;;
46675;SDS011;32412;51.478;5.694;2022-12-07T08:33:52;18.38;;;9.20;;
46675;SDS011;32412;51.478;5.694;2022-12-07T08:36:18;19.52;;;10.73;;
46675;SDS011;32412;51.478;5.694;2022-12-07T08:38:43;25.20;;;12.50;;
46675;SDS011;32412;51.478;5.694;2022-12-07T08:41:09;22.95;;;11.68;;
46675;SDS011;32412;51.478;5.694;2022-12-07T08:43:35;14.50;;;9.00;;
46675;SDS011;32412;51.478;5.694;2022-12-07T08:48:49;16.67;;;9.20;;
46675;SDS011;32412;51.478;5.694;2022-12-07T08:51:20;20.65;;;8.65;;
46675;SDS011;32412;51.478;5.694;2022-12-07T08:53:47;13.82;;;8.02;;
46675;SDS011;32412;51.478;5.694;2022-12-07T08:56:14;19.90;;;8.90;;
46675;SDS011;32412;51.478;5.694;2022-12-07T08:58:40;18.75;;;7.55;;
46675;SDS011;32412;51.478;5.694;2022-12-07T09:01:06;11.48;;;6.32;;
46675;SDS011;32412;51.478;5.694;2022-12-07T09:03:32;13.57;;;7.03;;
46675;SDS011;32412;51.478;5.694;2022-12-07T09:05:57;11.65;;;5.82;;
46675;SDS011;32412;51.478;5.694;2022-12-07T09:08:26;15.38;;;5.70;;
46675;SDS011;32412;51.478;5.694;2022-12-07T09:10:59;12.25;;;6.57;;
46675;SDS011;32412;51.478;5.694;2022-12-07T09:13:24;13.35;;;6.15;;
46675;SDS011;32412;51.478;5.694;2022-12-07T09:15:50;11.27;;;5.70;;
46675;SDS011;32412;51.478;5.694;2022-12-07T09:18:15;10.77;;;5.20;;
46675;SDS011;32412;51.478;5.694;2022-12-07T09:20:41;9.48;;;4.45;;
46675;SDS011;32412;51.478;5.694;2022-12-07T09:23:17;10.20;;;4.60;;
46675;SDS011;32412;51.478;5.694;2022-12-07T09:25:42;9.38;;;4.28;;
46675;SDS011;32412;51.478;5.694;2022-12-07T09:28:08;14.98;;;3.80;;
46675;SDS011;32412;51.478;5.694;2022-12-07T09:30:34;9.77;;;3.95;;
46675;SDS011;32412;51.478;5.694;2022-12-07T09:33:00;12.63;;;3.72;;
46675;SDS011;32412;51.478;5.694;2022-12-07T09:35:26;6.43;;;3.92;;
46675;SDS011;32412;51.478;5.694;2022-12-07T09:37:52;9.75;;;3.45;;
46675;SDS011;32412;51.478;5.694;2022-12-07T09:40:18;5.90;;;3.00;;
46675;SDS011;32412;51.478;5.694;2022-12-07T09:42:47;8.48;;;3.45;;
46675;SDS011;32412;51.478;5.694;2022-12-07T09:45:23;6.85;;;3.63;;
46675;SDS011;32412;51.478;5.694;2022-12-07T09:47:56;8.38;;;3.00;;
46675;SDS011;32412;51.478;5.694;2022-12-07T09:50:24;8.27;;;3.03;;
46675;SDS011;32412;51.478;5.694;2022-12-07T09:52:52;9.30;;;3.45;;
46675;SDS011;32412;51.478;5.694;2022-12-07T09:55:38;8.95;;;3.55;;
46675;SDS011;32412;51.478;5.694;2022-12-07T09:58:08;7.85;;;3.22;;
46675;SDS011;32412;51.478;5.694;2022-12-07T10:00:42;9.48;;;3.70;;
46675;SDS011;32412;51.478;5.694;2022-12-07T10:03:09;9.93;;;3.72;;
46675;SDS011;32412;51.478;5.694;2022-12-07T10:05:38;17.45;;;9.20;;
46675;SDS011;32412;51.478;5.694;2022-12-07T10:08:09;13.70;;;3.83;;
46675;SDS011;32412;51.478;5.694;2022-12-07T10:10:37;12.63;;;3.40;;
46675;SDS011;32412;51.478;5.694;2022-12-07T10:13:14;12.07;;;3.28;;
46675;SDS011;32412;51.478;5.694;2022-12-07T10:23:27;5.07;;;2.63;;
46675;SDS011;32412;51.478;5.694;2022-12-07T10:25:52;7.15;;;3.47;;
46675;SDS011;32412;51.478;5.694;2022-12-07T10:28:20;9.43;;;2.30;;
46675;SDS011;32412;51.478;5.694;2022-12-07T10:33:34;3.90;;;2.00;;
46675;SDS011;32412;51.478;5.694;2022-12-07T10:36:24;7.18;;;2.58;;
46675;SDS011;32412;51.478;5.694;2022-12-07T10:39:03;6.47;;;2.13;;
46675;SDS011;32412;51.478;5.694;2022-12-07T10:41:53;4.13;;;1.85;;
46675;SDS011;32412;51.478;5.694;2022-12-07T10:44:26;3.85;;;1.98;;
46675;SDS011;32412;51.478;5.694;2022-12-07T10:49:41;4.95;;;2.42;;
46675;SDS011;32412;51.478;5.694;2022-12-07T11:01:13;5.18;;;1.67;;
46675;SDS011;32412;51.478;5.694;2022-12-07T11:15:01;5.15;;;1.77;;
46675;SDS011;32412;51.478;5.694;2022-12-07T11:20:39;12.45;;;2.25;;
46675;SDS011;32412;51.478;5.694;2022-12-07T11:34:08;4.47;;;1.70;;
46675;SDS011;32412;51.478;5.694;2022-12-07T11:36:53;5.95;;;1.75;;
46675;SDS011;32412;51.478;5.694;2022-12-07T11:41:48;6.32;;;2.67;;
46675;SDS011;32412;51.478;5.694;2022-12-07T11:44:24;4.65;;;1.42;;
46675;SDS011;32412;51.478;5.694;2022-12-07T11:47:40;5.00;;;1.83;;
46675;SDS011;32412;51.478;5.694;2022-12-07T11:58:23;13.10;;;2.95;;
46675;SDS011;32412;51.478;5.694;2022-12-07T12:04:03;11.85;;;2.47;;
46675;SDS011;32412;51.478;5.694;2022-12-07T12:06:31;10.10;;;3.78;;
46675;SDS011;32412;51.478;5.694;2022-12-07T12:22:45;11.45;;;2.53;;
46675;SDS011;32412;51.478;5.694;2022-12-07T12:25:37;7.95;;;1.85;;
46675;SDS011;32412;51.478;5.694;2022-12-07T12:29:18;5.63;;;1.58;;
46675;SDS011;32412;51.478;5.694;2022-12-07T12:33:33;5.72;;;1.45;;
46675;SDS011;32412;51.478;5.694;2022-12-07T12:46:49;5.30;;;1.75;;
46675;SDS011;32412;51.478;5.694;2022-12-07T12:51:43;4.32;;;1.40;;
46675;SDS011;32412;51.478;5.694;2022-12-07T12:57:03;6.43;;;1.80;;
46675;SDS011;32412;51.478;5.694;2022-12-07T12:59:38;3.42;;;1.20;;
46675;SDS011;32412;51.478;5.694;2022-12-07T13:04:59;4.07;;;1.83;;
46675;SDS011;32412;51.478;5.694;2022-12-07T13:29:09;1.08;;;0.68;;
46675;SDS011;32412;51.478;5.694;2022-12-07T13:31:39;4.13;;;0.75;;
46675;SDS011;32412;51.478;5.694;2022-12-07T13:37:08;4.35;;;0.95;;
46675;SDS011;32412;51.478;5.694;2022-12-07T13:39:47;2.40;;;1.00;;
46675;SDS011;32412;51.478;5.694;2022-12-07T13:44:50;4.70;;;1.33;;
46675;SDS011;32412;51.478;5.694;2022-12-07T13:47:17;4.82;;;1.20;;
46675;SDS011;32412;51.478;5.694;2022-12-07T13:49:52;3.10;;;0.95;;
46675;SDS011;32412;51.478;5.694;2022-12-07T13:52:21;4.85;;;1.40;;
46675;SDS011;32412;51.478;5.694;2022-12-07T13:54:58;7.53;;;1.15;;
46675;SDS011;32412;51.478;5.694;2022-12-07T13:57:24;4.40;;;0.70;;
46675;SDS011;32412;51.478;5.694;2022-12-07T13:59:52;3.97;;;2.10;;
46675;SDS011;32412;51.478;5.694;2022-12-07T14:02:19;3.55;;;1.30;;
46675;SDS011;32412;51.478;5.694;2022-12-07T14:04:48;3.92;;;1.40;;
46675;SDS011;32412;51.478;5.694;2022-12-07T14:07:26;5.35;;;1.33;;
46675;SDS011;32412;51.478;5.694;2022-12-07T14:09:58;4.65;;;1.45;;
46675;SDS011;32412;51.478;5.694;2022-12-07T14:12:26;3.35;;;2.40;;
46675;SDS011;32412;51.478;5.694;2022-12-07T14:14:53;6.22;;;2.28;;
46675;SDS011;32412;51.478;5.694;2022-12-07T14:17:21;6.20;;;1.92;;
46675;SDS011;32412;51.478;5.694;2022-12-07T14:19:52;6.43;;;2.30;;
46675;SDS011;32412;51.478;5.694;2022-12-07T14:22:26;5.18;;;1.55;;
46675;SDS011;32412;51.478;5.694;2022-12-07T14:25:00;4.78;;;1.40;;
46675;SDS011;32412;51.478;5.694;2022-12-07T14:27:39;6.07;;;2.53;;
46675;SDS011;32412;51.478;5.694;2022-12-07T14:30:17;6.93;;;1.60;;
46675;SDS011;32412;51.478;5.694;2022-12-07T14:32:44;10.20;;;3.20;;
46675;SDS011;32412;51.478;5.694;2022-12-07T14:35:14;5.13;;;1.70;;
46675;SDS011;32412;51.478;5.694;2022-12-07T14:37:41;6.38;;;1.85;;
46675;SDS011;32412;51.478;5.694;2022-12-07T14:40:11;6.65;;;1.80;;
46675;SDS011;32412;51.478;5.694;2022-12-07T14:42:38;6.43;;;1.70;;
46675;SDS011;32412;51.478;5.694;2022-12-07T14:45:05;8.88;;;2.83;;
46675;SDS011;32412;51.478;5.694;2022-12-07T14:47:37;7.90;;;2.85;;
46675;SDS011;32412;51.478;5.694;2022-12-07T14:50:03;6.97;;;1.75;;
46675;SDS011;32412;51.478;5.694;2022-12-07T14:52:29;3.78;;;1.33;;
46675;SDS011;32412;51.478;5.694;2022-12-07T14:54:55;5.55;;;1.98;;
46675;SDS011;32412;51.478;5.694;2022-12-07T14:57:21;4.53;;;2.40;;
46675;SDS011;32412;51.478;5.694;2022-12-07T14:59:46;6.65;;;1.98;;
46675;SDS011;32412;51.478;5.694;2022-12-07T15:02:12;7.03;;;1.83;;
46675;SDS011;32412;51.478;5.694;2022-12-07T15:04:39;6.95;;;2.53;;
46675;SDS011;32412;51.478;5.694;2022-12-07T15:07:06;8.20;;;2.72;;
46675;SDS011;32412;51.478;5.694;2022-12-07T15:09:35;5.72;;;2.58;;
46675;SDS011;32412;51.478;5.694;2022-12-07T15:12:01;5.53;;;1.50;;
46675;SDS011;32412;51.478;5.694;2022-12-07T15:14:27;6.30;;;2.10;;
46675;SDS011;32412;51.478;5.694;2022-12-07T15:16:53;4.43;;;1.80;;
46675;SDS011;32412;51.478;5.694;2022-12-07T15:19:22;5.30;;;1.98;;
46675;SDS011;32412;51.478;5.694;2022-12-07T15:21:50;4.20;;;2.10;;
46675;SDS011;32412;51.478;5.694;2022-12-07T15:24:17;6.75;;;2.83;;
46675;SDS011;32412;51.478;5.694;2022-12-07T15:26:43;5.20;;;2.50;;
46675;SDS011;32412;51.478;5.694;2022-12-07T15:29:10;7.18;;;3.78;;
46675;SDS011;32412;51.478;5.694;2022-12-07T15:31:36;4.88;;;2.17;;
46675;SDS011;32412;51.478;5.694;2022-12-07T15:34:02;9.57;;;2.60;;
46675;SDS011;32412;51.478;5.694;2022-12-07T15:36:29;6.30;;;2.83;;
46675;SDS011;32412;51.478;5.694;2022-12-07T15:38:56;7.40;;;2.42;;
46675;SDS011;32412;51.478;5.694;2022-12-07T15:41:22;5.07;;;2.40;;
46675;SDS011;32412;51.478;5.694;2022-12-07T15:43:48;3.97;;;2.70;;
46675;SDS011;32412;51.478;5.694;2022-12-07T15:46:33;3.72;;;2.83;;
46675;SDS011;32412;51.478;5.694;2022-12-07T15:49:01;5.63;;;2.85;;
46675;SDS011;32412;51.478;5.694;2022-12-07T15:51:27;5.15;;;3.03;;
46675;SDS011;32412;51.478;5.694;2022-12-07T15:53:53;3.65;;;2.85;;
46675;SDS011;32412;51.478;5.694;2022-12-07T15:56:19;9.45;;;3.70;;
46675;SDS011;32412;51.478;5.694;2022-12-07T15:58:45;8.98;;;3.50;;
46675;SDS011;32412;51.478;5.694;2022-12-07T16:01:15;13.88;;;5.20;;
46675;SDS011;32412;51.478;5.694;2022-12-07T16:03:42;10.50;;;3.95;;
46675;SDS011;32412;51.478;5.694;2022-12-07T16:06:09;8.63;;;4.28;;
46675;SDS011;32412;51.478;5.694;2022-12-07T16:08:35;9.02;;;4.35;;
46675;SDS011;32412;51.478;5.694;2022-12-07T16:11:04;8.95;;;4.18;;
46675;SDS011;32412;51.478;5.694;2022-12-07T16:13:31;13.32;;;4.05;;
46675;SDS011;32412;51.478;5.694;2022-12-07T16:15:57;10.18;;;4.20;;
46675;SDS011;32412;51.478;5.694;2022-12-07T16:18:23;7.20;;;4.13;;
46675;SDS011;32412;51.478;5.694;2022-12-07T16:20:48;6.22;;;4.57;;
46675;SDS011;32412;51.478;5.694;2022-12-07T16:23:14;11.15;;;5.30;;
46675;SDS011;32412;51.478;5.694;2022-12-07T16:25:40;13.13;;;4.90;;
46675;SDS011;32412;51.478;5.694;2022-12-07T16:28:06;9.07;;;5.10;;
46675;SDS011;32412;51.478;5.694;2022-12-07T16:30:32;16.67;;;7.85;;
46675;SDS011;32412;51.478;5.694;2022-12-07T16:32:58;13.48;;;6.72;;
46675;SDS011;32412;51.478;5.694;2022-12-07T16:35:24;16.95;;;7.45;;
46675;SDS011;32412;51.478;5.694;2022-12-07T16:37:50;17.88;;;8.43;;
46675;SDS011;32412;51.478;5.694;2022-12-07T16:40:15;11.98;;;6.07;;
46675;SDS011;32412;51.478;5.694;2022-12-07T16:42:41;10.48;;;6.22;;
46675;SDS011;32412;51.478;5.694;2022-12-07T16:45:07;12.20;;;5.50;;
46675;SDS011;32412;51.478;5.694;2022-12-07T16:47:39;15.13;;;8.95;;
46675;SDS011;32412;51.478;5.694;2022-12-07T16:50:05;16.05;;;7.10;;
46675;SDS011;32412;51.478;5.694;2022-12-07T16:52:32;10.57;;;4.65;;
46675;SDS011;32412;51.478;5.694;2022-12-07T16:54:58;7.10;;;5.03;;
46675;SDS011;32412;51.478;5.694;2022-12-07T16:57:24;7.80;;;6.10;;
46675;SDS011;32412;51.478;5.694;2022-12-07T16:59:51;7.82;;;4.82;;
46675;SDS011;32412;51.478;5.694;2022-12-07T17:02:17;7.78;;;4.03;;
46675;SDS011;32412;51.478;5.694;2022-12-07T17:04:43;7.75;;;3.85;;
46675;SDS011;32412;51.478;5.694;2022-12-07T17:07:09;10.82;;;3.90;;
46675;SDS011;32412;51.478;5.694;2022-12-07T17:09:36;7.80;;;5.22;;
46675;SDS011;32412;51.478;5.694;2022-12-07T17:12:02;11.77;;;5.40;;
46675;SDS011;32412;51.478;5.694;2022-12-07T17:14:28;8.93;;;4.72;;
46675;SDS011;32412;51.478;5.694;2022-12-07T17:17:12;8.45;;;4.05;;
46675;SDS011;32412;51.478;5.694;2022-12-07T17:19:37;8.07;;;4.47;;
46675;SDS011;32412;51.478;5.694;2022-12-07T17:22:04;7.47;;;4.43;;
46675;SDS011;32412;51.478;5.694;2022-12-07T17:24:30;5.90;;;4.32;;
46675;SDS011;32412;51.478;5.694;2022-12-07T17:26:56;8.70;;;3.70;;
46675;SDS011;32412;51.478;5.694;2022-12-07T17:29:22;6.65;;;3.92;;
46675;SDS011;32412;51.478;5.694;2022-12-07T17:31:47;8.73;;;3.42;;
46675;SDS011;32412;51.478;5.694;2022-12-07T17:34:13;4.53;;;3.60;;
46675;SDS011;32412;51.478;5.694;2022-12-07T17:36:40;7.80;;;3.67;;